sensor_id;sensor_type;location;lat;lon;timestamp;P1;durP1;ratioP1;P2;durP2;ratioP2
72261;SDS011;60173;52.112;8.648;2023-07-31T00:01:11;3.65;;;2.13;;
72261;SDS011;60173;52.112;8.648;2023-07-31T00:03:37;5.88;;;2.38;;
72261;SDS011;60173;52.112;8.648;2023-07-31T00:06:04;2.72;;;1.60;;
72261;SDS011;60173;52.112;8.648;2023-07-31T00:08:30;3.05;;;1.85;;
72261;SDS011;60173;52.112;8.648;2023-07-31T00:10:56;4.28;;;1.90;;
72261;SDS011;60173;52.112;8.648;2023-07-31T00:13:23;4.82;;;2.15;;
72261;SDS011;60173;52.112;8.648;2023-07-31T00:15:49;3.08;;;1.63;;
72261;SDS011;60173;52.112;8.648;2023-07-31T00:18:16;3.20;;;1.50;;
72261;SDS011;60173;52.112;8.648;2023-07-31T00:20:42;2.67;;;1.55;;
72261;SDS011;60173;52.112;8.648;2023-07-31T00:23:08;3.03;;;1.50;;
72261;SDS011;60173;52.112;8.648;2023-07-31T00:25:35;2.08;;;1.33;;
72261;SDS011;60173;52.112;8.648;2023-07-31T00:28:01;1.63;;;1.17;;
72261;SDS011;60173;52.112;8.648;2023-07-31T00:30:27;1.73;;;1.20;;
72261;SDS011;60173;52.112;8.648;2023-07-31T00:32:54;2.35;;;1.38;;
72261;SDS011;60173;52.112;8.648;2023-07-31T00:35:20;1.40;;;1.30;;
72261;SDS011;60173;52.112;8.648;2023-07-31T00:37:47;1.95;;;1.30;;
72261;SDS011;60173;52.112;8.648;2023-07-31T00:40:13;2.78;;;1.70;;
72261;SDS011;60173;52.112;8.648;2023-07-31T00:42:40;3.53;;;1.60;;
72261;SDS011;60173;52.112;8.648;2023-07-31T00:45:06;1.80;;;1.70;;
72261;SDS011;60173;52.112;8.648;2023-07-31T00:47:33;3.17;;;1.58;;
72261;SDS011;60173;52.112;8.648;2023-07-31T00:49:59;1.65;;;1.55;;
72261;SDS011;60173;52.112;8.648;2023-07-31T00:52:25;2.28;;;2.00;;
72261;SDS011;60173;52.112;8.648;2023-07-31T00:54:52;4.18;;;2.50;;
72261;SDS011;60173;52.112;8.648;2023-07-31T00:57:18;2.88;;;2.35;;
72261;SDS011;60173;52.112;8.648;2023-07-31T00:59:45;3.10;;;2.70;;
72261;SDS011;60173;52.112;8.648;2023-07-31T01:02:11;3.65;;;3.17;;
72261;SDS011;60173;52.112;8.648;2023-07-31T01:04:38;3.53;;;2.92;;
72261;SDS011;60173;52.112;8.648;2023-07-31T01:07:08;5.70;;;2.85;;
72261;SDS011;60173;52.112;8.648;2023-07-31T01:09:44;4.57;;;3.03;;
72261;SDS011;60173;52.112;8.648;2023-07-31T01:12:21;4.60;;;3.63;;
72261;SDS011;60173;52.112;8.648;2023-07-31T01:15:05;3.55;;;3.00;;
72261;SDS011;60173;52.112;8.648;2023-07-31T01:17:33;4.57;;;3.38;;
72261;SDS011;60173;52.112;8.648;2023-07-31T01:20:01;5.40;;;3.63;;
72261;SDS011;60173;52.112;8.648;2023-07-31T01:22:47;3.85;;;3.33;;
72261;SDS011;60173;52.112;8.648;2023-07-31T01:27:53;6.55;;;3.67;;
72261;SDS011;60173;52.112;8.648;2023-07-31T01:30:25;4.50;;;3.53;;
72261;SDS011;60173;52.112;8.648;2023-07-31T01:32:58;3.78;;;3.45;;
72261;SDS011;60173;52.112;8.648;2023-07-31T01:35:24;4.18;;;3.08;;
72261;SDS011;60173;52.112;8.648;2023-07-31T01:37:54;4.15;;;3.40;;
72261;SDS011;60173;52.112;8.648;2023-07-31T01:40:20;3.50;;;2.70;;
72261;SDS011;60173;52.112;8.648;2023-07-31T01:42:47;5.63;;;3.08;;
72261;SDS011;60173;52.112;8.648;2023-07-31T01:45:13;3.28;;;2.78;;
72261;SDS011;60173;52.112;8.648;2023-07-31T01:47:39;5.07;;;3.28;;
72261;SDS011;60173;52.112;8.648;2023-07-31T01:50:06;5.60;;;3.10;;
72261;SDS011;60173;52.112;8.648;2023-07-31T01:52:33;3.47;;;2.58;;
72261;SDS011;60173;52.112;8.648;2023-07-31T01:54:59;5.22;;;2.85;;
72261;SDS011;60173;52.112;8.648;2023-07-31T01:57:25;3.22;;;2.85;;
72261;SDS011;60173;52.112;8.648;2023-07-31T01:59:52;3.15;;;2.40;;
72261;SDS011;60173;52.112;8.648;2023-07-31T02:02:19;5.90;;;2.72;;
72261;SDS011;60173;52.112;8.648;2023-07-31T02:04:46;4.70;;;2.72;;
72261;SDS011;60173;52.112;8.648;2023-07-31T02:07:12;6.20;;;2.92;;
72261;SDS011;60173;52.112;8.648;2023-07-31T02:09:39;4.03;;;2.88;;
72261;SDS011;60173;52.112;8.648;2023-07-31T02:12:05;4.72;;;2.63;;
72261;SDS011;60173;52.112;8.648;2023-07-31T02:14:32;6.35;;;2.70;;
72261;SDS011;60173;52.112;8.648;2023-07-31T02:16:58;5.47;;;2.67;;
72261;SDS011;60173;52.112;8.648;2023-07-31T02:19:24;4.13;;;2.67;;
72261;SDS011;60173;52.112;8.648;2023-07-31T02:21:51;3.80;;;2.50;;
72261;SDS011;60173;52.112;8.648;2023-07-31T02:24:17;4.05;;;2.40;;
72261;SDS011;60173;52.112;8.648;2023-07-31T02:26:44;4.78;;;2.40;;
72261;SDS011;60173;52.112;8.648;2023-07-31T02:29:10;4.40;;;2.40;;
72261;SDS011;60173;52.112;8.648;2023-07-31T02:31:36;4.40;;;2.40;;
72261;SDS011;60173;52.112;8.648;2023-07-31T02:34:03;4.82;;;2.65;;
72261;SDS011;60173;52.112;8.648;2023-07-31T02:36:29;6.43;;;3.17;;
72261;SDS011;60173;52.112;8.648;2023-07-31T02:38:56;5.85;;;2.78;;
72261;SDS011;60173;52.112;8.648;2023-07-31T02:41:22;3.25;;;2.42;;
72261;SDS011;60173;52.112;8.648;2023-07-31T02:43:48;4.90;;;2.75;;
72261;SDS011;60173;52.112;8.648;2023-07-31T02:46:15;4.53;;;2.60;;
72261;SDS011;60173;52.112;8.648;2023-07-31T02:48:41;3.03;;;2.10;;
72261;SDS011;60173;52.112;8.648;2023-07-31T02:51:08;3.83;;;2.03;;
72261;SDS011;60173;52.112;8.648;2023-07-31T02:53:34;2.88;;;2.13;;
72261;SDS011;60173;52.112;8.648;2023-07-31T02:56:00;3.65;;;2.10;;
72261;SDS011;60173;52.112;8.648;2023-07-31T02:58:27;2.25;;;1.63;;
72261;SDS011;60173;52.112;8.648;2023-07-31T03:00:53;3.50;;;1.90;;
72261;SDS011;60173;52.112;8.648;2023-07-31T03:03:20;4.57;;;2.45;;
72261;SDS011;60173;52.112;8.648;2023-07-31T03:05:46;3.42;;;1.80;;
72261;SDS011;60173;52.112;8.648;2023-07-31T03:08:13;3.38;;;1.95;;
72261;SDS011;60173;52.112;8.648;2023-07-31T03:10:39;2.67;;;1.77;;
72261;SDS011;60173;52.112;8.648;2023-07-31T03:13:06;4.43;;;2.13;;
72261;SDS011;60173;52.112;8.648;2023-07-31T03:15:32;3.45;;;1.65;;
72261;SDS011;60173;52.112;8.648;2023-07-31T03:17:59;2.40;;;1.80;;
72261;SDS011;60173;52.112;8.648;2023-07-31T03:20:25;3.85;;;1.55;;
72261;SDS011;60173;52.112;8.648;2023-07-31T03:22:51;2.53;;;1.30;;
72261;SDS011;60173;52.112;8.648;2023-07-31T03:25:18;1.92;;;1.42;;
72261;SDS011;60173;52.112;8.648;2023-07-31T03:27:44;4.90;;;1.50;;
72261;SDS011;60173;52.112;8.648;2023-07-31T03:30:11;2.53;;;1.50;;
72261;SDS011;60173;52.112;8.648;2023-07-31T03:32:37;1.90;;;1.50;;
72261;SDS011;60173;52.112;8.648;2023-07-31T03:35:04;2.20;;;1.48;;
72261;SDS011;60173;52.112;8.648;2023-07-31T03:37:30;2.05;;;1.58;;
72261;SDS011;60173;52.112;8.648;2023-07-31T03:39:57;2.40;;;2.08;;
72261;SDS011;60173;52.112;8.648;2023-07-31T03:42:23;14.68;;;2.80;;
72261;SDS011;60173;52.112;8.648;2023-07-31T03:44:50;5.00;;;3.40;;
72261;SDS011;60173;52.112;8.648;2023-07-31T03:47:16;7.18;;;4.70;;
72261;SDS011;60173;52.112;8.648;2023-07-31T03:49:42;16.50;;;7.45;;
72261;SDS011;60173;52.112;8.648;2023-07-31T03:52:09;9.85;;;6.45;;
72261;SDS011;60173;52.112;8.648;2023-07-31T03:54:35;11.75;;;7.65;;
72261;SDS011;60173;52.112;8.648;2023-07-31T03:57:02;18.38;;;9.57;;
72261;SDS011;60173;52.112;8.648;2023-07-31T03:59:28;19.88;;;12.30;;
72261;SDS011;60173;52.112;8.648;2023-07-31T04:01:54;16.90;;;11.77;;
72261;SDS011;60173;52.112;8.648;2023-07-31T04:04:21;21.73;;;14.23;;
72261;SDS011;60173;52.112;8.648;2023-07-31T04:06:47;24.77;;;15.95;;
72261;SDS011;60173;52.112;8.648;2023-07-31T04:09:14;24.10;;;16.17;;
72261;SDS011;60173;52.112;8.648;2023-07-31T04:11:40;27.58;;;15.70;;
72261;SDS011;60173;52.112;8.648;2023-07-31T04:14:06;37.30;;;18.25;;
72261;SDS011;60173;52.112;8.648;2023-07-31T04:16:33;30.13;;;18.38;;
72261;SDS011;60173;52.112;8.648;2023-07-31T04:18:59;31.25;;;18.23;;
72261;SDS011;60173;52.112;8.648;2023-07-31T04:21:26;33.03;;;18.70;;
72261;SDS011;60173;52.112;8.648;2023-07-31T04:23:52;28.48;;;17.15;;
72261;SDS011;60173;52.112;8.648;2023-07-31T04:26:18;28.63;;;16.52;;
72261;SDS011;60173;52.112;8.648;2023-07-31T04:28:45;34.30;;;17.00;;
72261;SDS011;60173;52.112;8.648;2023-07-31T04:31:11;35.53;;;18.05;;
72261;SDS011;60173;52.112;8.648;2023-07-31T04:33:38;33.50;;;18.05;;
72261;SDS011;60173;52.112;8.648;2023-07-31T04:36:04;33.67;;;18.00;;
72261;SDS011;60173;52.112;8.648;2023-07-31T04:38:31;28.00;;;17.17;;
72261;SDS011;60173;52.112;8.648;2023-07-31T04:40:57;34.85;;;17.73;;
72261;SDS011;60173;52.112;8.648;2023-07-31T04:43:23;33.67;;;16.92;;
72261;SDS011;60173;52.112;8.648;2023-07-31T04:45:50;29.92;;;17.30;;
72261;SDS011;60173;52.112;8.648;2023-07-31T04:48:16;32.85;;;17.55;;
72261;SDS011;60173;52.112;8.648;2023-07-31T04:50:43;31.95;;;17.90;;
72261;SDS011;60173;52.112;8.648;2023-07-31T04:53:09;28.17;;;15.98;;
72261;SDS011;60173;52.112;8.648;2023-07-31T04:55:36;33.95;;;17.65;;
72261;SDS011;60173;52.112;8.648;2023-07-31T04:58:02;29.17;;;15.48;;
72261;SDS011;60173;52.112;8.648;2023-07-31T05:00:28;29.95;;;15.90;;
72261;SDS011;60173;52.112;8.648;2023-07-31T05:02:55;32.10;;;16.33;;
72261;SDS011;60173;52.112;8.648;2023-07-31T05:05:21;38.15;;;17.08;;
72261;SDS011;60173;52.112;8.648;2023-07-31T05:07:48;28.83;;;15.98;;
72261;SDS011;60173;52.112;8.648;2023-07-31T05:10:14;30.88;;;17.10;;
72261;SDS011;60173;52.112;8.648;2023-07-31T05:12:40;35.75;;;17.20;;
72261;SDS011;60173;52.112;8.648;2023-07-31T05:15:07;35.42;;;17.90;;
72261;SDS011;60173;52.112;8.648;2023-07-31T05:17:34;44.00;;;16.73;;
72261;SDS011;60173;52.112;8.648;2023-07-31T05:20:00;28.40;;;15.75;;
72261;SDS011;60173;52.112;8.648;2023-07-31T05:22:27;30.48;;;15.30;;
72261;SDS011;60173;52.112;8.648;2023-07-31T05:24:53;32.38;;;15.30;;
72261;SDS011;60173;52.112;8.648;2023-07-31T05:27:19;30.23;;;15.05;;
72261;SDS011;60173;52.112;8.648;2023-07-31T05:29:46;36.75;;;15.60;;
72261;SDS011;60173;52.112;8.648;2023-07-31T05:32:12;28.00;;;14.38;;
72261;SDS011;60173;52.112;8.648;2023-07-31T05:34:39;30.15;;;14.95;;
72261;SDS011;60173;52.112;8.648;2023-07-31T05:37:05;36.72;;;13.52;;
72261;SDS011;60173;52.112;8.648;2023-07-31T05:39:31;23.33;;;12.82;;
72261;SDS011;60173;52.112;8.648;2023-07-31T05:41:58;25.08;;;12.50;;
72261;SDS011;60173;52.112;8.648;2023-07-31T05:44:24;31.83;;;12.38;;
72261;SDS011;60173;52.112;8.648;2023-07-31T05:46:51;23.98;;;11.18;;
72261;SDS011;60173;52.112;8.648;2023-07-31T05:49:17;25.20;;;11.02;;
72261;SDS011;60173;52.112;8.648;2023-07-31T05:51:43;27.45;;;11.48;;
72261;SDS011;60173;52.112;8.648;2023-07-31T05:54:10;22.30;;;10.98;;
72261;SDS011;60173;52.112;8.648;2023-07-31T05:56:36;23.85;;;11.15;;
72261;SDS011;60173;52.112;8.648;2023-07-31T05:59:03;28.65;;;11.48;;
72261;SDS011;60173;52.112;8.648;2023-07-31T06:01:30;21.67;;;9.90;;
72261;SDS011;60173;52.112;8.648;2023-07-31T06:03:56;33.10;;;11.65;;
72261;SDS011;60173;52.112;8.648;2023-07-31T06:06:23;26.67;;;10.13;;
72261;SDS011;60173;52.112;8.648;2023-07-31T06:08:49;24.67;;;10.70;;
72261;SDS011;60173;52.112;8.648;2023-07-31T06:11:15;25.15;;;9.88;;
72261;SDS011;60173;52.112;8.648;2023-07-31T06:13:42;23.45;;;9.25;;
72261;SDS011;60173;52.112;8.648;2023-07-31T06:16:09;22.92;;;9.48;;
72261;SDS011;60173;52.112;8.648;2023-07-31T06:18:35;29.30;;;9.23;;
72261;SDS011;60173;52.112;8.648;2023-07-31T06:21:02;22.67;;;9.25;;
72261;SDS011;60173;52.112;8.648;2023-07-31T06:23:28;24.50;;;9.68;;
72261;SDS011;60173;52.112;8.648;2023-07-31T06:25:55;19.25;;;9.00;;
72261;SDS011;60173;52.112;8.648;2023-07-31T06:28:21;24.02;;;9.68;;
72261;SDS011;60173;52.112;8.648;2023-07-31T06:30:53;20.00;;;8.48;;
72261;SDS011;60173;52.112;8.648;2023-07-31T06:33:19;20.90;;;9.10;;
72261;SDS011;60173;52.112;8.648;2023-07-31T06:35:46;29.42;;;9.70;;
72261;SDS011;60173;52.112;8.648;2023-07-31T06:38:12;21.98;;;9.50;;
72261;SDS011;60173;52.112;8.648;2023-07-31T06:40:38;25.02;;;9.45;;
72261;SDS011;60173;52.112;8.648;2023-07-31T06:43:05;19.48;;;8.95;;
72261;SDS011;60173;52.112;8.648;2023-07-31T06:45:32;20.10;;;9.15;;
72261;SDS011;60173;52.112;8.648;2023-07-31T06:47:58;24.95;;;10.57;;
72261;SDS011;60173;52.112;8.648;2023-07-31T06:50:24;24.50;;;9.10;;
72261;SDS011;60173;52.112;8.648;2023-07-31T06:52:51;25.10;;;9.70;;
72261;SDS011;60173;52.112;8.648;2023-07-31T06:57:45;23.80;;;9.90;;
72261;SDS011;60173;52.112;8.648;2023-07-31T07:00:12;25.38;;;9.32;;
72261;SDS011;60173;52.112;8.648;2023-07-31T07:02:39;20.70;;;9.65;;
72261;SDS011;60173;52.112;8.648;2023-07-31T07:05:06;22.63;;;8.38;;
72261;SDS011;60173;52.112;8.648;2023-07-31T07:07:33;21.58;;;8.73;;
72261;SDS011;60173;52.112;8.648;2023-07-31T07:10:00;24.60;;;9.57;;
72261;SDS011;60173;52.112;8.648;2023-07-31T07:12:28;19.25;;;8.05;;
72261;SDS011;60173;52.112;8.648;2023-07-31T07:14:56;17.42;;;7.72;;
72261;SDS011;60173;52.112;8.648;2023-07-31T07:17:23;20.92;;;8.25;;
72261;SDS011;60173;52.112;8.648;2023-07-31T07:19:49;19.60;;;7.88;;
72261;SDS011;60173;52.112;8.648;2023-07-31T07:22:16;20.15;;;7.68;;
72261;SDS011;60173;52.112;8.648;2023-07-31T07:24:42;26.23;;;7.93;;
72261;SDS011;60173;52.112;8.648;2023-07-31T07:27:08;20.35;;;8.25;;
72261;SDS011;60173;52.112;8.648;2023-07-31T07:29:35;16.27;;;7.20;;
72261;SDS011;60173;52.112;8.648;2023-07-31T07:32:01;18.00;;;8.18;;
72261;SDS011;60173;52.112;8.648;2023-07-31T07:34:28;16.65;;;7.38;;
72261;SDS011;60173;52.112;8.648;2023-07-31T07:36:54;22.05;;;8.73;;
72261;SDS011;60173;52.112;8.648;2023-07-31T07:39:21;25.92;;;8.65;;
72261;SDS011;60173;52.112;8.648;2023-07-31T07:41:48;22.60;;;8.52;;
72261;SDS011;60173;52.112;8.648;2023-07-31T07:44:14;16.90;;;8.00;;
72261;SDS011;60173;52.112;8.648;2023-07-31T07:46:40;24.38;;;8.88;;
72261;SDS011;60173;52.112;8.648;2023-07-31T07:49:07;16.83;;;8.65;;
72261;SDS011;60173;52.112;8.648;2023-07-31T07:51:34;24.77;;;9.43;;
72261;SDS011;60173;52.112;8.648;2023-07-31T07:54:00;20.40;;;9.40;;
72261;SDS011;60173;52.112;8.648;2023-07-31T07:56:26;26.85;;;10.05;;
72261;SDS011;60173;52.112;8.648;2023-07-31T07:58:53;22.50;;;9.38;;
72261;SDS011;60173;52.112;8.648;2023-07-31T08:01:20;18.13;;;8.48;;
72261;SDS011;60173;52.112;8.648;2023-07-31T08:03:47;14.65;;;8.98;;
72261;SDS011;60173;52.112;8.648;2023-07-31T08:06:14;17.70;;;8.40;;
72261;SDS011;60173;52.112;8.648;2023-07-31T08:08:40;22.35;;;9.65;;
72261;SDS011;60173;52.112;8.648;2023-07-31T08:11:07;16.83;;;9.73;;
72261;SDS011;60173;52.112;8.648;2023-07-31T08:13:33;18.30;;;9.07;;
72261;SDS011;60173;52.112;8.648;2023-07-31T08:15:59;16.85;;;8.50;;
72261;SDS011;60173;52.112;8.648;2023-07-31T08:18:26;14.57;;;7.57;;
72261;SDS011;60173;52.112;8.648;2023-07-31T08:20:52;15.60;;;7.60;;
72261;SDS011;60173;52.112;8.648;2023-07-31T08:23:19;15.18;;;8.13;;
72261;SDS011;60173;52.112;8.648;2023-07-31T08:25:45;13.27;;;7.53;;
72261;SDS011;60173;52.112;8.648;2023-07-31T08:28:11;13.75;;;6.68;;
72261;SDS011;60173;52.112;8.648;2023-07-31T08:30:38;9.27;;;5.53;;
72261;SDS011;60173;52.112;8.648;2023-07-31T08:33:04;11.63;;;6.03;;
72261;SDS011;60173;52.112;8.648;2023-07-31T08:35:31;9.63;;;5.95;;
72261;SDS011;60173;52.112;8.648;2023-07-31T08:37:57;9.38;;;5.40;;
72261;SDS011;60173;52.112;8.648;2023-07-31T08:40:23;10.10;;;5.40;;
72261;SDS011;60173;52.112;8.648;2023-07-31T08:42:53;9.88;;;5.18;;
72261;SDS011;60173;52.112;8.648;2023-07-31T08:45:21;13.07;;;5.60;;
72261;SDS011;60173;52.112;8.648;2023-07-31T08:47:48;9.50;;;5.32;;
72261;SDS011;60173;52.112;8.648;2023-07-31T08:50:17;10.57;;;4.95;;
72261;SDS011;60173;52.112;8.648;2023-07-31T08:52:46;9.20;;;5.85;;
72261;SDS011;60173;52.112;8.648;2023-07-31T08:55:14;9.02;;;5.70;;
72261;SDS011;60173;52.112;8.648;2023-07-31T08:57:41;9.15;;;5.70;;
72261;SDS011;60173;52.112;8.648;2023-07-31T09:00:09;9.27;;;4.88;;
72261;SDS011;60173;52.112;8.648;2023-07-31T09:02:48;7.60;;;4.97;;
72261;SDS011;60173;52.112;8.648;2023-07-31T09:07:49;7.65;;;4.88;;
72261;SDS011;60173;52.112;8.648;2023-07-31T09:10:17;7.18;;;4.70;;
72261;SDS011;60173;52.112;8.648;2023-07-31T09:12:44;9.00;;;4.75;;
72261;SDS011;60173;52.112;8.648;2023-07-31T09:15:11;7.95;;;4.22;;
72261;SDS011;60173;52.112;8.648;2023-07-31T09:18:00;6.47;;;4.70;;
72261;SDS011;60173;52.112;8.648;2023-07-31T09:20:27;10.02;;;4.57;;
72261;SDS011;60173;52.112;8.648;2023-07-31T09:22:53;9.55;;;4.90;;
72261;SDS011;60173;52.112;8.648;2023-07-31T09:25:22;10.30;;;4.95;;
72261;SDS011;60173;52.112;8.648;2023-07-31T09:27:54;10.77;;;4.63;;
72261;SDS011;60173;52.112;8.648;2023-07-31T09:30:23;7.75;;;4.43;;
72261;SDS011;60173;52.112;8.648;2023-07-31T09:32:50;5.72;;;4.30;;
72261;SDS011;60173;52.112;8.648;2023-07-31T09:35:21;7.72;;;4.35;;
72261;SDS011;60173;52.112;8.648;2023-07-31T09:37:59;6.75;;;4.68;;
72261;SDS011;60173;52.112;8.648;2023-07-31T09:42:57;8.00;;;4.22;;
72261;SDS011;60173;52.112;8.648;2023-07-31T09:45:29;8.60;;;4.30;;
72261;SDS011;60173;52.112;8.648;2023-07-31T09:48:11;6.95;;;4.03;;
72261;SDS011;60173;52.112;8.648;2023-07-31T09:50:41;6.80;;;4.32;;
72261;SDS011;60173;52.112;8.648;2023-07-31T09:53:10;6.13;;;4.20;;
72261;SDS011;60173;52.112;8.648;2023-07-31T09:55:37;6.90;;;4.03;;
72261;SDS011;60173;52.112;8.648;2023-07-31T09:58:05;8.82;;;3.83;;
72261;SDS011;60173;52.112;8.648;2023-07-31T10:00:33;6.72;;;3.72;;
72261;SDS011;60173;52.112;8.648;2023-07-31T10:03:01;6.93;;;4.43;;
72261;SDS011;60173;52.112;8.648;2023-07-31T10:05:35;8.85;;;4.28;;
72261;SDS011;60173;52.112;8.648;2023-07-31T10:08:04;7.90;;;4.25;;
72261;SDS011;60173;52.112;8.648;2023-07-31T10:10:33;6.55;;;4.10;;
72261;SDS011;60173;52.112;8.648;2023-07-31T10:13:02;7.00;;;4.30;;
72261;SDS011;60173;52.112;8.648;2023-07-31T10:15:30;8.25;;;4.03;;
72261;SDS011;60173;52.112;8.648;2023-07-31T10:17:57;9.00;;;4.28;;
72261;SDS011;60173;52.112;8.648;2023-07-31T10:20:25;6.80;;;3.88;;
72261;SDS011;60173;52.112;8.648;2023-07-31T10:22:53;7.95;;;3.65;;
72261;SDS011;60173;52.112;8.648;2023-07-31T10:25:21;4.45;;;3.25;;
72261;SDS011;60173;52.112;8.648;2023-07-31T10:27:48;5.70;;;3.30;;
72261;SDS011;60173;52.112;8.648;2023-07-31T10:30:17;6.13;;;3.17;;
72261;SDS011;60173;52.112;8.648;2023-07-31T10:32:45;5.78;;;3.08;;
72261;SDS011;60173;52.112;8.648;2023-07-31T10:35:14;6.40;;;3.30;;
72261;SDS011;60173;52.112;8.648;2023-07-31T10:37:43;4.93;;;3.50;;
72261;SDS011;60173;52.112;8.648;2023-07-31T10:40:16;4.40;;;2.53;;
72261;SDS011;60173;52.112;8.648;2023-07-31T10:42:49;4.50;;;2.45;;
72261;SDS011;60173;52.112;8.648;2023-07-31T10:45:39;4.50;;;2.55;;
72261;SDS011;60173;52.112;8.648;2023-07-31T10:48:15;3.33;;;2.45;;
72261;SDS011;60173;52.112;8.648;2023-07-31T10:50:49;4.95;;;2.33;;
72261;SDS011;60173;52.112;8.648;2023-07-31T10:53:29;4.10;;;2.20;;
72261;SDS011;60173;52.112;8.648;2023-07-31T10:56:18;2.58;;;2.28;;
72261;SDS011;60173;52.112;8.648;2023-07-31T10:58:44;4.53;;;2.30;;
72261;SDS011;60173;52.112;8.648;2023-07-31T11:01:10;2.65;;;2.08;;
72261;SDS011;60173;52.112;8.648;2023-07-31T11:03:41;2.60;;;1.40;;
72261;SDS011;60173;52.112;8.648;2023-07-31T11:06:16;2.75;;;1.65;;
72261;SDS011;60173;52.112;8.648;2023-07-31T11:08:45;2.72;;;1.65;;
72261;SDS011;60173;52.112;8.648;2023-07-31T11:11:16;2.67;;;2.03;;
72261;SDS011;60173;52.112;8.648;2023-07-31T11:13:45;3.80;;;2.10;;
72261;SDS011;60173;52.112;8.648;2023-07-31T11:16:13;2.67;;;1.85;;
72261;SDS011;60173;52.112;8.648;2023-07-31T11:18:41;2.75;;;2.05;;
72261;SDS011;60173;52.112;8.648;2023-07-31T11:21:12;3.20;;;1.67;;
72261;SDS011;60173;52.112;8.648;2023-07-31T11:23:40;2.28;;;1.60;;
72261;SDS011;60173;52.112;8.648;2023-07-31T11:26:06;2.08;;;1.88;;
72261;SDS011;60173;52.112;8.648;2023-07-31T11:28:33;2.88;;;1.70;;
72261;SDS011;60173;52.112;8.648;2023-07-31T11:31:01;2.53;;;1.98;;
72261;SDS011;60173;52.112;8.648;2023-07-31T11:33:29;2.47;;;1.80;;
72261;SDS011;60173;52.112;8.648;2023-07-31T11:35:55;4.07;;;1.90;;
72261;SDS011;60173;52.112;8.648;2023-07-31T11:38:23;2.33;;;1.70;;
72261;SDS011;60173;52.112;8.648;2023-07-31T11:40:52;3.45;;;1.90;;
72261;SDS011;60173;52.112;8.648;2023-07-31T11:43:20;3.95;;;2.28;;
72261;SDS011;60173;52.112;8.648;2023-07-31T11:45:48;5.20;;;2.20;;
72261;SDS011;60173;52.112;8.648;2023-07-31T11:48:34;2.72;;;1.85;;
72261;SDS011;60173;52.112;8.648;2023-07-31T11:51:03;2.70;;;1.90;;
72261;SDS011;60173;52.112;8.648;2023-07-31T11:53:41;3.88;;;2.25;;
72261;SDS011;60173;52.112;8.648;2023-07-31T11:56:10;3.88;;;1.90;;
72261;SDS011;60173;52.112;8.648;2023-07-31T11:58:39;1.90;;;1.70;;
72261;SDS011;60173;52.112;8.648;2023-07-31T12:01:07;3.83;;;1.88;;
72261;SDS011;60173;52.112;8.648;2023-07-31T12:03:34;2.67;;;1.50;;
72261;SDS011;60173;52.112;8.648;2023-07-31T12:06:01;1.83;;;1.58;;
72261;SDS011;60173;52.112;8.648;2023-07-31T12:08:27;3.20;;;1.63;;
72261;SDS011;60173;52.112;8.648;2023-07-31T12:10:54;1.52;;;1.40;;
72261;SDS011;60173;52.112;8.648;2023-07-31T12:13:24;2.38;;;1.48;;
72261;SDS011;60173;52.112;8.648;2023-07-31T12:15:55;4.40;;;1.75;;
72261;SDS011;60173;52.112;8.648;2023-07-31T12:18:24;2.08;;;1.58;;
72261;SDS011;60173;52.112;8.648;2023-07-31T12:20:58;1.50;;;1.40;;
72261;SDS011;60173;52.112;8.648;2023-07-31T12:23:27;2.60;;;1.50;;
72261;SDS011;60173;52.112;8.648;2023-07-31T12:28:42;3.25;;;1.20;;
72261;SDS011;60173;52.112;8.648;2023-07-31T12:31:16;3.72;;;1.58;;
72261;SDS011;60173;52.112;8.648;2023-07-31T12:33:43;2.38;;;1.67;;
72261;SDS011;60173;52.112;8.648;2023-07-31T12:36:10;3.38;;;1.70;;
72261;SDS011;60173;52.112;8.648;2023-07-31T12:38:39;1.90;;;1.50;;
72261;SDS011;60173;52.112;8.648;2023-07-31T12:41:06;4.00;;;1.60;;
72261;SDS011;60173;52.112;8.648;2023-07-31T12:43:33;2.72;;;1.20;;
72261;SDS011;60173;52.112;8.648;2023-07-31T12:46:00;2.00;;;1.58;;
72261;SDS011;60173;52.112;8.648;2023-07-31T12:48:26;4.55;;;1.88;;
72261;SDS011;60173;52.112;8.648;2023-07-31T12:50:53;1.88;;;1.45;;
72261;SDS011;60173;52.112;8.648;2023-07-31T12:53:19;2.20;;;1.60;;
72261;SDS011;60173;52.112;8.648;2023-07-31T12:55:46;3.13;;;2.05;;
72261;SDS011;60173;52.112;8.648;2023-07-31T12:58:12;3.13;;;1.65;;
72261;SDS011;60173;52.112;8.648;2023-07-31T13:00:39;4.07;;;2.17;;
72261;SDS011;60173;52.112;8.648;2023-07-31T13:03:05;3.42;;;2.28;;
72261;SDS011;60173;52.112;8.648;2023-07-31T13:05:32;3.80;;;2.80;;
72261;SDS011;60173;52.112;8.648;2023-07-31T13:07:58;5.28;;;3.38;;
72261;SDS011;60173;52.112;8.648;2023-07-31T13:10:25;4.38;;;3.97;;
72261;SDS011;60173;52.112;8.648;2023-07-31T13:12:53;6.30;;;4.70;;
72261;SDS011;60173;52.112;8.648;2023-07-31T13:15:19;5.75;;;4.80;;
72261;SDS011;60173;52.112;8.648;2023-07-31T13:17:46;8.98;;;5.85;;
72261;SDS011;60173;52.112;8.648;2023-07-31T13:20:12;6.43;;;5.82;;
72261;SDS011;60173;52.112;8.648;2023-07-31T13:22:39;7.63;;;5.80;;
72261;SDS011;60173;52.112;8.648;2023-07-31T13:25:05;8.30;;;6.50;;
72261;SDS011;60173;52.112;8.648;2023-07-31T13:27:32;8.65;;;6.80;;
72261;SDS011;60173;52.112;8.648;2023-07-31T13:29:59;8.13;;;7.03;;
72261;SDS011;60173;52.112;8.648;2023-07-31T13:32:25;9.25;;;6.90;;
72261;SDS011;60173;52.112;8.648;2023-07-31T13:34:51;8.80;;;6.85;;
72261;SDS011;60173;52.112;8.648;2023-07-31T13:37:18;11.27;;;7.28;;
72261;SDS011;60173;52.112;8.648;2023-07-31T13:39:44;8.75;;;6.05;;
72261;SDS011;60173;52.112;8.648;2023-07-31T13:42:10;7.03;;;5.63;;
72261;SDS011;60173;52.112;8.648;2023-07-31T13:44:40;7.45;;;5.65;;
72261;SDS011;60173;52.112;8.648;2023-07-31T13:47:08;6.15;;;5.15;;
72261;SDS011;60173;52.112;8.648;2023-07-31T13:49:35;7.28;;;5.53;;
72261;SDS011;60173;52.112;8.648;2023-07-31T13:52:02;9.80;;;5.80;;
72261;SDS011;60173;52.112;8.648;2023-07-31T13:54:29;9.30;;;5.75;;
72261;SDS011;60173;52.112;8.648;2023-07-31T13:56:56;5.60;;;5.00;;
72261;SDS011;60173;52.112;8.648;2023-07-31T13:59:23;6.60;;;5.47;;
72261;SDS011;60173;52.112;8.648;2023-07-31T14:01:49;8.60;;;4.85;;
72261;SDS011;60173;52.112;8.648;2023-07-31T14:04:16;8.93;;;4.80;;
72261;SDS011;60173;52.112;8.648;2023-07-31T14:06:43;7.22;;;4.70;;
72261;SDS011;60173;52.112;8.648;2023-07-31T14:09:09;7.90;;;4.80;;
72261;SDS011;60173;52.112;8.648;2023-07-31T14:11:36;8.10;;;5.45;;
72261;SDS011;60173;52.112;8.648;2023-07-31T14:14:05;9.48;;;5.22;;
72261;SDS011;60173;52.112;8.648;2023-07-31T14:16:31;7.95;;;5.30;;
72261;SDS011;60173;52.112;8.648;2023-07-31T14:18:57;8.30;;;5.25;;
72261;SDS011;60173;52.112;8.648;2023-07-31T14:21:24;6.85;;;5.78;;
72261;SDS011;60173;52.112;8.648;2023-07-31T14:23:51;9.38;;;5.47;;
72261;SDS011;60173;52.112;8.648;2023-07-31T14:26:18;8.07;;;5.53;;
72261;SDS011;60173;52.112;8.648;2023-07-31T14:28:44;8.50;;;5.05;;
72261;SDS011;60173;52.112;8.648;2023-07-31T14:31:11;8.25;;;5.50;;
72261;SDS011;60173;52.112;8.648;2023-07-31T14:33:37;5.45;;;4.78;;
72261;SDS011;60173;52.112;8.648;2023-07-31T14:36:04;7.60;;;5.13;;
72261;SDS011;60173;52.112;8.648;2023-07-31T14:38:30;7.53;;;5.20;;
72261;SDS011;60173;52.112;8.648;2023-07-31T14:40:57;6.20;;;5.32;;
72261;SDS011;60173;52.112;8.648;2023-07-31T14:43:23;6.88;;;5.10;;
72261;SDS011;60173;52.112;8.648;2023-07-31T14:45:49;6.45;;;5.15;;
72261;SDS011;60173;52.112;8.648;2023-07-31T14:48:16;7.72;;;5.25;;
72261;SDS011;60173;52.112;8.648;2023-07-31T14:50:42;5.65;;;4.47;;
72261;SDS011;60173;52.112;8.648;2023-07-31T14:53:08;6.63;;;5.07;;
72261;SDS011;60173;52.112;8.648;2023-07-31T14:55:35;6.97;;;4.80;;